createdAt,value
2022-12-20T11:17:32.171Z,5.41
2022-12-20T11:20:52.842Z,4.19
2022-12-20T14:10:34.546Z,1.16
2022-12-20T14:13:02.841Z,1.06
2022-12-20T14:15:32.966Z,1.03
2022-12-20T14:18:20.016Z,0.95
2022-12-20T14:21:08.821Z,0.88
2022-12-20T14:23:45.712Z,0.84
2022-12-20T14:26:19.456Z,0.83
2022-12-20T14:28:50.180Z,0.82
2022-12-20T14:31:33.725Z,0.78
2022-12-20T14:34:10.682Z,0.72
2022-12-20T14:36:40.621Z,0.68
2022-12-20T14:39:29.121Z,0.65
2022-12-20T14:42:00.887Z,0.60
2022-12-20T14:44:31.017Z,0.65
2022-12-20T14:47:01.536Z,0.66
2022-12-20T14:49:32.317Z,0.64
2022-12-20T14:52:20.504Z,0.64
2022-12-20T14:55:10.271Z,0.60
2022-12-20T14:57:41.203Z,0.53
2022-12-20T15:00:21.718Z,0.50
2022-12-20T15:03:01.494Z,0.49
2022-12-20T15:05:36.879Z,0.63
2022-12-20T15:08:13.958Z,0.76
2022-12-20T15:10:43.506Z,0.86
2022-12-20T15:13:16.635Z,0.87
2022-12-20T15:15:45.616Z,0.86
2022-12-20T15:18:18.943Z,0.84
2022-12-20T15:20:49.955Z,0.84
2022-12-20T15:23:19.997Z,0.80
2022-12-20T15:25:48.662Z,0.80
2022-12-20T15:28:20.232Z,0.78
2022-12-20T15:30:49.996Z,0.77
2022-12-20T15:33:21.591Z,0.74
2022-12-20T15:35:49.718Z,0.69
2022-12-20T15:38:40.662Z,0.66
2022-12-20T15:41:17.863Z,0.60
2022-12-20T15:43:45.920Z,0.53
2022-12-20T15:46:14.420Z,0.53
2022-12-20T15:48:42.510Z,0.47
2022-12-20T15:51:26.379Z,0.44
2022-12-20T15:53:55.153Z,0.47
2022-12-20T15:56:24.654Z,0.49
2022-12-20T15:58:53.047Z,0.51
2022-12-20T16:01:40.989Z,0.52
2022-12-20T16:04:15.849Z,0.47
2022-12-20T16:06:45.983Z,0.43
2022-12-20T16:09:15.414Z,0.43
2022-12-20T16:11:44.153Z,0.40
2022-12-20T16:14:21.654Z,0.37
2022-12-20T16:16:51.476Z,0.36
2022-12-20T16:19:19.643Z,0.33
2022-12-20T16:21:50.680Z,0.32
2022-12-20T16:24:20.588Z,0.32
2022-12-20T16:26:49.576Z,0.31
2022-12-20T16:29:17.564Z,0.21
2022-12-20T16:31:45.823Z,0.10
2022-12-20T16:34:19.355Z,-0.02
2022-12-20T16:36:47.605Z,-0.05
2022-12-20T16:39:15.680Z,-0.03
2022-12-20T16:41:45.020Z,-0.04
2022-12-20T16:44:15.301Z,-0.06
2022-12-20T16:46:43.546Z,-0.08
2022-12-20T16:49:19.454Z,-0.10
2022-12-20T16:51:49.084Z,-0.17
2022-12-20T16:54:22.591Z,-0.13
2022-12-20T16:56:56.170Z,-0.11
2022-12-20T16:59:25.351Z,-0.14
2022-12-20T17:01:55.989Z,-0.13
2022-12-20T17:04:25.081Z,-0.10
2022-12-20T17:06:53.084Z,-0.10
2022-12-20T17:09:21.059Z,-0.11
2022-12-20T17:11:50.387Z,-0.14
2022-12-20T17:14:20.068Z,-0.17
2022-12-20T17:16:48.351Z,-0.34
2022-12-20T17:19:16.562Z,-0.40
2022-12-20T17:24:33.860Z,-0.47
2022-12-20T17:27:01.953Z,-0.43
2022-12-20T17:29:30.207Z,-0.38
2022-12-20T17:31:58.366Z,-0.38
2022-12-20T17:34:29.453Z,-0.38
2022-12-20T17:36:59.278Z,-0.37
2022-12-20T17:39:27.454Z,-0.40
2022-12-20T17:41:55.968Z,-0.43
2022-12-20T17:44:26.906Z,-0.46
2022-12-20T17:46:56.553Z,-0.52
2022-12-20T17:49:25.076Z,-0.60
2022-12-20T17:51:53.207Z,-0.63
2022-12-20T17:54:25.365Z,-0.66
2022-12-20T17:56:57.436Z,-0.68
2022-12-20T17:59:26.039Z,-0.73
2022-12-20T18:01:54.383Z,-0.79
2022-12-20T18:04:22.767Z,-0.81
2022-12-20T18:06:52.319Z,-0.84
2022-12-20T18:09:21.708Z,-0.83
2022-12-20T18:11:50.077Z,-0.81
2022-12-20T18:14:18.225Z,-0.82
2022-12-20T18:16:46.546Z,-0.87
2022-12-20T18:19:17.544Z,-0.89
2022-12-20T18:21:45.720Z,-0.81
2022-12-20T18:24:15.602Z,-0.81
2022-12-20T18:26:45.266Z,-0.83
2022-12-20T18:29:13.411Z,-0.85
2022-12-20T18:31:41.507Z,-0.87
2022-12-20T18:34:10.171Z,-0.92
2022-12-20T18:36:38.306Z,-0.97
2022-12-20T18:39:08.054Z,-1.01
2022-12-20T18:41:36.264Z,-1.01
2022-12-20T18:44:06.623Z,-1.01
2022-12-20T18:46:34.721Z,-1.04
2022-12-20T18:49:03.310Z,-1.06
2022-12-20T18:51:36.856Z,-1.12
2022-12-20T18:54:08.161Z,-1.04
2022-12-20T18:56:38.609Z,-1.02
2022-12-20T18:59:12.131Z,-1.12
2022-12-20T19:01:42.828Z,-1.11
2022-12-20T19:04:12.024Z,-1.26
2022-12-20T19:06:40.328Z,-1.36
2022-12-20T19:09:11.163Z,-1.31
2022-12-20T19:11:39.766Z,-1.33
2022-12-20T19:14:09.102Z,-1.46
2022-12-20T19:16:39.777Z,-1.49
2022-12-20T19:19:09.141Z,-1.47
2022-12-20T19:21:39.956Z,-1.48
2022-12-20T19:24:09.811Z,-1.48
2022-12-20T19:26:39.236Z,-1.47
2022-12-20T19:29:08.152Z,-1.46
2022-12-20T19:31:37.817Z,-1.48
2022-12-20T19:34:08.897Z,-1.50
2022-12-20T19:36:42.719Z,-1.47
2022-12-20T19:39:20.644Z,-1.50
2022-12-20T19:42:21.775Z,-1.54
2022-12-20T19:44:38.552Z,-1.50
2022-12-20T19:47:06.923Z,-1.39
2022-12-20T19:49:38.280Z,-1.32
2022-12-20T19:52:06.967Z,-1.26
2022-12-20T19:54:35.703Z,-1.19
2022-12-20T19:57:04.146Z,-1.12
2022-12-20T19:59:32.436Z,-1.03
2022-12-20T20:02:01.046Z,-1.01
2022-12-20T20:04:29.572Z,-0.99
2022-12-20T20:06:57.936Z,-1.02
2022-12-20T20:09:26.179Z,-1.07
2022-12-20T20:11:54.549Z,-1.08
2022-12-20T20:14:25.887Z,-1.12
2022-12-20T20:16:59.290Z,-1.18
2022-12-20T20:19:29.914Z,-1.19
2022-12-20T20:22:02.975Z,-1.21
2022-12-20T20:24:31.296Z,-1.22
2022-12-20T20:27:10.705Z,-1.25
2022-12-20T20:29:41.510Z,-1.29
2022-12-20T20:32:10.264Z,-1.35
2022-12-20T20:34:38.592Z,-1.38
2022-12-20T20:37:07.521Z,-1.38
2022-12-20T20:39:36.040Z,-1.39
2022-12-20T20:42:04.323Z,-1.44
2022-12-20T20:44:33.635Z,-1.42
2022-12-20T20:47:01.879Z,-1.40
2022-12-20T20:49:30.261Z,-1.37
2022-12-20T20:51:58.700Z,-1.37
2022-12-20T20:54:27.724Z,-1.32
2022-12-20T20:56:55.885Z,-1.33
2022-12-20T20:59:25.099Z,-1.31
2022-12-20T21:01:53.831Z,-1.31
2022-12-20T21:04:22.390Z,-1.29
2022-12-20T21:06:50.971Z,-1.31
2022-12-20T21:09:19.621Z,-1.37
2022-12-20T21:11:48.024Z,-1.42
2022-12-20T21:14:16.442Z,-1.48
2022-12-20T21:16:44.806Z,-1.50
2022-12-20T21:19:13.091Z,-1.54
2022-12-20T21:21:41.252Z,-1.59
2022-12-20T21:24:09.675Z,-1.60
2022-12-20T21:26:38.329Z,-1.66
2022-12-20T21:29:07.072Z,-1.68
2022-12-20T21:31:36.379Z,-1.71
2022-12-20T21:34:04.790Z,-1.73
2022-12-20T21:36:33.086Z,-1.72
2022-12-20T21:39:01.322Z,-1.76
2022-12-20T21:41:29.938Z,-1.81
2022-12-20T21:43:59.517Z,-1.84
2022-12-20T21:46:30.325Z,-1.89
2022-12-20T21:48:59.089Z,-1.84
2022-12-20T21:51:29.262Z,-1.88
2022-12-20T21:54:01.101Z,-1.83
2022-12-20T21:56:31.758Z,-1.73
2022-12-20T21:59:00.343Z,-1.75
2022-12-20T22:01:29.209Z,-1.75
2022-12-20T22:04:00.805Z,-1.73
2022-12-20T22:06:29.416Z,-1.69
2022-12-20T22:08:59.127Z,-1.71
2022-12-20T22:11:27.659Z,-1.73
2022-12-20T22:13:56.254Z,-1.79
2022-12-20T22:16:29.111Z,-1.89
2022-12-20T22:18:58.963Z,-1.95
2022-12-20T22:21:30.267Z,-1.93
2022-12-20T22:23:59.389Z,-1.93
2022-12-20T22:26:29.796Z,-1.98
2022-12-20T22:29:01.728Z,-2.06
2022-12-20T22:31:31.010Z,-2.06
2022-12-20T22:34:00.186Z,-2.07
2022-12-20T22:36:28.660Z,-2.08
2022-12-20T22:38:57.447Z,-2.06
2022-12-20T22:41:28.962Z,-2.02
2022-12-20T22:43:59.430Z,-1.99
2022-12-20T22:46:31.455Z,-1.98
2022-12-20T22:49:01.848Z,-1.98
2022-12-20T22:51:33.603Z,-1.91
2022-12-20T22:54:02.329Z,-1.86
2022-12-20T22:56:30.478Z,-1.92
2022-12-20T22:58:58.444Z,-1.92
2022-12-20T23:01:27.386Z,-1.93
2022-12-20T23:03:56.402Z,-1.96
2022-12-20T23:06:24.744Z,-1.99
2022-12-20T23:08:52.883Z,-2.03
2022-12-20T23:11:42.155Z,-2.05
2022-12-20T23:14:39.720Z,-2.06
2022-12-20T23:17:09.593Z,-2.10
2022-12-20T23:19:56.555Z,-2.07
2022-12-20T23:22:41.030Z,-2.04
2022-12-20T23:25:18.421Z,-2.01
2022-12-20T23:27:48.583Z,-2.04
2022-12-20T23:30:19.615Z,-2.11
2022-12-20T23:32:47.675Z,-2.16
2022-12-20T23:35:17.872Z,-2.12
2022-12-20T23:37:46.962Z,-2.09
2022-12-20T23:40:16.438Z,-2.14
2022-12-20T23:42:45.003Z,-2.24
2022-12-20T23:45:13.257Z,-2.25
2022-12-20T23:47:41.202Z,-2.26
2022-12-20T23:50:09.573Z,-2.27
2022-12-20T23:52:37.732Z,-2.30
2022-12-20T23:55:06.500Z,-2.35
2022-12-20T23:57:34.617Z,-2.36
